sensor_id;sensor_type;location;lat;lon;timestamp;temperature;humidity
22065;DHT22;11197;53.110;8.468;2023-08-06T00:00:24;16.70;99.90
22065;DHT22;11197;53.110;8.468;2023-08-06T00:02:50;16.60;99.90
22065;DHT22;11197;53.110;8.468;2023-08-06T00:05:16;16.40;99.90
22065;DHT22;11197;53.110;8.468;2023-08-06T00:07:49;16.40;99.90
22065;DHT22;11197;53.110;8.468;2023-08-06T00:10:15;16.30;99.90
22065;DHT22;11197;53.110;8.468;2023-08-06T00:12:41;16.20;99.90
22065;DHT22;11197;53.110;8.468;2023-08-06T00:15:07;16.20;99.90
22065;DHT22;11197;53.110;8.468;2023-08-06T00:17:34;16.10;99.90
22065;DHT22;11197;53.110;8.468;2023-08-06T00:20:00;16.10;99.90
22065;DHT22;11197;53.110;8.468;2023-08-06T00:22:37;16.00;99.90
22065;DHT22;11197;53.110;8.468;2023-08-06T00:25:07;16.00;99.90
22065;DHT22;11197;53.110;8.468;2023-08-06T00:27:34;15.90;99.90
22065;DHT22;11197;53.110;8.468;2023-08-06T00:30:00;15.90;99.90
22065;DHT22;11197;53.110;8.468;2023-08-06T00:32:26;15.80;99.90
22065;DHT22;11197;53.110;8.468;2023-08-06T00:34:52;15.80;99.90
22065;DHT22;11197;53.110;8.468;2023-08-06T00:37:19;15.80;99.90
22065;DHT22;11197;53.110;8.468;2023-08-06T00:39:45;15.80;99.90
22065;DHT22;11197;53.110;8.468;2023-08-06T00:42:12;15.80;99.90
22065;DHT22;11197;53.110;8.468;2023-08-06T00:44:38;15.70;99.90
22065;DHT22;11197;53.110;8.468;2023-08-06T00:47:05;15.70;99.90
22065;DHT22;11197;53.110;8.468;2023-08-06T00:49:31;15.80;99.90
22065;DHT22;11197;53.110;8.468;2023-08-06T00:51:57;15.70;99.90
22065;DHT22;11197;53.110;8.468;2023-08-06T00:54:23;15.70;99.90
22065;DHT22;11197;53.110;8.468;2023-08-06T00:56:53;15.70;99.90
22065;DHT22;11197;53.110;8.468;2023-08-06T00:59:20;15.70;99.90
22065;DHT22;11197;53.110;8.468;2023-08-06T01:01:49;15.70;99.90
22065;DHT22;11197;53.110;8.468;2023-08-06T01:04:18;15.70;99.90
22065;DHT22;11197;53.110;8.468;2023-08-06T01:06:56;15.60;99.90
22065;DHT22;11197;53.110;8.468;2023-08-06T01:09:50;15.70;99.90
22065;DHT22;11197;53.110;8.468;2023-08-06T01:15:54;15.60;99.90
22065;DHT22;11197;53.110;8.468;2023-08-06T01:18:19;15.60;99.90
22065;DHT22;11197;53.110;8.468;2023-08-06T01:20:46;15.60;99.90
22065;DHT22;11197;53.110;8.468;2023-08-06T01:23:12;15.60;99.90
22065;DHT22;11197;53.110;8.468;2023-08-06T01:26:09;15.70;99.90
22065;DHT22;11197;53.110;8.468;2023-08-06T01:28:48;15.60;99.90
22065;DHT22;11197;53.110;8.468;2023-08-06T01:31:22;15.60;99.90
22065;DHT22;11197;53.110;8.468;2023-08-06T01:33:49;15.60;99.90
22065;DHT22;11197;53.110;8.468;2023-08-06T01:36:16;15.60;99.90
22065;DHT22;11197;53.110;8.468;2023-08-06T01:38:45;15.60;99.90
22065;DHT22;11197;53.110;8.468;2023-08-06T01:41:16;15.60;99.90
22065;DHT22;11197;53.110;8.468;2023-08-06T01:43:42;15.60;99.90
22065;DHT22;11197;53.110;8.468;2023-08-06T01:46:08;15.60;99.90
22065;DHT22;11197;53.110;8.468;2023-08-06T01:48:35;15.60;99.90
22065;DHT22;11197;53.110;8.468;2023-08-06T01:51:03;15.60;99.90
22065;DHT22;11197;53.110;8.468;2023-08-06T01:53:29;15.60;99.90
22065;DHT22;11197;53.110;8.468;2023-08-06T01:55:54;15.60;99.90
22065;DHT22;11197;53.110;8.468;2023-08-06T01:58:20;15.60;99.90
22065;DHT22;11197;53.110;8.468;2023-08-06T02:00:46;15.50;99.90
22065;DHT22;11197;53.110;8.468;2023-08-06T02:03:12;15.50;99.90
22065;DHT22;11197;53.110;8.468;2023-08-06T02:05:38;15.50;99.90
22065;DHT22;11197;53.110;8.468;2023-08-06T02:08:04;15.50;99.90
22065;DHT22;11197;53.110;8.468;2023-08-06T02:10:31;15.50;99.90
22065;DHT22;11197;53.110;8.468;2023-08-06T02:12:57;15.40;99.90
22065;DHT22;11197;53.110;8.468;2023-08-06T02:15:23;15.40;99.90
22065;DHT22;11197;53.110;8.468;2023-08-06T02:17:50;15.40;99.90
22065;DHT22;11197;53.110;8.468;2023-08-06T02:20:16;15.40;99.90
22065;DHT22;11197;53.110;8.468;2023-08-06T02:22:42;15.40;99.90
22065;DHT22;11197;53.110;8.468;2023-08-06T02:25:09;15.40;99.90
22065;DHT22;11197;53.110;8.468;2023-08-06T02:27:35;15.40;99.90
22065;DHT22;11197;53.110;8.468;2023-08-06T02:30:02;15.40;99.90
22065;DHT22;11197;53.110;8.468;2023-08-06T02:32:30;15.40;99.90
22065;DHT22;11197;53.110;8.468;2023-08-06T02:34:59;15.40;99.90
22065;DHT22;11197;53.110;8.468;2023-08-06T02:37:24;15.30;99.90
22065;DHT22;11197;53.110;8.468;2023-08-06T02:39:52;15.30;99.90
22065;DHT22;11197;53.110;8.468;2023-08-06T02:42:19;15.30;99.90
22065;DHT22;11197;53.110;8.468;2023-08-06T02:44:46;15.40;99.90
22065;DHT22;11197;53.110;8.468;2023-08-06T02:47:12;15.30;99.90
22065;DHT22;11197;53.110;8.468;2023-08-06T02:49:38;15.30;99.90
22065;DHT22;11197;53.110;8.468;2023-08-06T02:52:04;15.30;99.90
22065;DHT22;11197;53.110;8.468;2023-08-06T02:54:29;15.30;99.90
22065;DHT22;11197;53.110;8.468;2023-08-06T02:56:56;15.30;99.90
22065;DHT22;11197;53.110;8.468;2023-08-06T02:59:28;15.30;99.90
22065;DHT22;11197;53.110;8.468;2023-08-06T03:02:13;15.30;99.90
22065;DHT22;11197;53.110;8.468;2023-08-06T03:04:48;15.30;99.90
22065;DHT22;11197;53.110;8.468;2023-08-06T03:07:16;15.30;99.90
22065;DHT22;11197;53.110;8.468;2023-08-06T03:09:53;15.30;99.90
22065;DHT22;11197;53.110;8.468;2023-08-06T03:12:21;15.30;99.90
22065;DHT22;11197;53.110;8.468;2023-08-06T03:14:48;15.30;99.90
22065;DHT22;11197;53.110;8.468;2023-08-06T03:17:15;15.30;99.90
22065;DHT22;11197;53.110;8.468;2023-08-06T03:19:42;15.30;99.90
22065;DHT22;11197;53.110;8.468;2023-08-06T03:22:08;15.30;99.90
22065;DHT22;11197;53.110;8.468;2023-08-06T03:24:35;15.30;99.90
22065;DHT22;11197;53.110;8.468;2023-08-06T03:27:01;15.30;99.90
22065;DHT22;11197;53.110;8.468;2023-08-06T03:29:27;15.30;99.90
22065;DHT22;11197;53.110;8.468;2023-08-06T03:31:57;15.30;99.90
22065;DHT22;11197;53.110;8.468;2023-08-06T03:34:22;15.30;99.90
22065;DHT22;11197;53.110;8.468;2023-08-06T03:36:50;15.30;99.90
22065;DHT22;11197;53.110;8.468;2023-08-06T03:39:16;15.30;99.90
22065;DHT22;11197;53.110;8.468;2023-08-06T03:41:42;15.30;99.90
22065;DHT22;11197;53.110;8.468;2023-08-06T03:44:08;15.30;99.90
22065;DHT22;11197;53.110;8.468;2023-08-06T03:46:34;15.30;99.90
22065;DHT22;11197;53.110;8.468;2023-08-06T03:49:02;15.20;99.90
22065;DHT22;11197;53.110;8.468;2023-08-06T03:51:28;15.20;99.90
22065;DHT22;11197;53.110;8.468;2023-08-06T03:53:55;15.20;99.90
22065;DHT22;11197;53.110;8.468;2023-08-06T03:56:24;15.20;99.90
22065;DHT22;11197;53.110;8.468;2023-08-06T03:58:50;15.20;99.90
22065;DHT22;11197;53.110;8.468;2023-08-06T04:01:16;15.20;99.90
22065;DHT22;11197;53.110;8.468;2023-08-06T04:03:45;15.20;99.90
22065;DHT22;11197;53.110;8.468;2023-08-06T04:06:11;15.20;99.90
22065;DHT22;11197;53.110;8.468;2023-08-06T04:08:37;15.20;99.90
22065;DHT22;11197;53.110;8.468;2023-08-06T04:11:02;15.20;99.90
22065;DHT22;11197;53.110;8.468;2023-08-06T04:13:29;15.20;99.90
22065;DHT22;11197;53.110;8.468;2023-08-06T04:16:03;15.20;99.90
22065;DHT22;11197;53.110;8.468;2023-08-06T04:18:31;15.20;99.90
22065;DHT22;11197;53.110;8.468;2023-08-06T04:20:57;15.20;99.90
22065;DHT22;11197;53.110;8.468;2023-08-06T04:23:25;15.20;99.90
22065;DHT22;11197;53.110;8.468;2023-08-06T04:25:56;15.20;99.90
22065;DHT22;11197;53.110;8.468;2023-08-06T04:28:24;15.20;99.90
22065;DHT22;11197;53.110;8.468;2023-08-06T04:30:49;15.20;99.90
22065;DHT22;11197;53.110;8.468;2023-08-06T04:33:16;15.20;99.90
22065;DHT22;11197;53.110;8.468;2023-08-06T04:35:44;15.20;99.90
22065;DHT22;11197;53.110;8.468;2023-08-06T04:38:11;15.20;99.90
22065;DHT22;11197;53.110;8.468;2023-08-06T04:40:37;15.20;99.90
22065;DHT22;11197;53.110;8.468;2023-08-06T04:43:03;15.10;99.90
22065;DHT22;11197;53.110;8.468;2023-08-06T04:45:33;15.10;99.90
22065;DHT22;11197;53.110;8.468;2023-08-06T04:48:02;15.20;99.90
22065;DHT22;11197;53.110;8.468;2023-08-06T04:50:29;15.10;99.90
22065;DHT22;11197;53.110;8.468;2023-08-06T04:52:56;15.20;99.90
22065;DHT22;11197;53.110;8.468;2023-08-06T04:55:22;15.20;99.90
22065;DHT22;11197;53.110;8.468;2023-08-06T04:57:48;15.20;99.90
22065;DHT22;11197;53.110;8.468;2023-08-06T05:00:13;15.20;99.90
22065;DHT22;11197;53.110;8.468;2023-08-06T05:02:39;15.20;99.90
22065;DHT22;11197;53.110;8.468;2023-08-06T05:05:05;15.20;99.90
22065;DHT22;11197;53.110;8.468;2023-08-06T05:07:31;15.20;99.90
22065;DHT22;11197;53.110;8.468;2023-08-06T05:09:56;15.20;99.90
22065;DHT22;11197;53.110;8.468;2023-08-06T05:12:22;15.20;99.90
22065;DHT22;11197;53.110;8.468;2023-08-06T05:14:51;15.20;99.90
22065;DHT22;11197;53.110;8.468;2023-08-06T05:17:18;15.20;99.90
22065;DHT22;11197;53.110;8.468;2023-08-06T05:19:45;15.20;99.90
22065;DHT22;11197;53.110;8.468;2023-08-06T05:22:10;15.20;99.90
22065;DHT22;11197;53.110;8.468;2023-08-06T05:24:37;15.20;99.90
22065;DHT22;11197;53.110;8.468;2023-08-06T05:27:03;15.20;99.90
22065;DHT22;11197;53.110;8.468;2023-08-06T05:29:28;15.30;99.90
22065;DHT22;11197;53.110;8.468;2023-08-06T05:31:54;15.30;99.90
22065;DHT22;11197;53.110;8.468;2023-08-06T05:34:20;15.30;99.90
22065;DHT22;11197;53.110;8.468;2023-08-06T05:36:45;15.30;99.90
22065;DHT22;11197;53.110;8.468;2023-08-06T05:39:11;15.30;99.90
22065;DHT22;11197;53.110;8.468;2023-08-06T05:41:37;15.30;99.90
22065;DHT22;11197;53.110;8.468;2023-08-06T05:44:02;15.30;99.90
22065;DHT22;11197;53.110;8.468;2023-08-06T05:46:28;15.30;99.90
22065;DHT22;11197;53.110;8.468;2023-08-06T05:48:54;15.40;99.90
22065;DHT22;11197;53.110;8.468;2023-08-06T05:51:27;15.40;99.90
22065;DHT22;11197;53.110;8.468;2023-08-06T05:53:52;15.40;99.90
22065;DHT22;11197;53.110;8.468;2023-08-06T05:56:18;15.40;99.90
22065;DHT22;11197;53.110;8.468;2023-08-06T05:58:44;15.40;99.90
22065;DHT22;11197;53.110;8.468;2023-08-06T06:01:12;15.50;99.90
22065;DHT22;11197;53.110;8.468;2023-08-06T06:03:37;15.50;99.90
22065;DHT22;11197;53.110;8.468;2023-08-06T06:06:04;15.50;99.90
22065;DHT22;11197;53.110;8.468;2023-08-06T06:08:31;15.50;99.90
22065;DHT22;11197;53.110;8.468;2023-08-06T06:10:58;15.50;99.90
22065;DHT22;11197;53.110;8.468;2023-08-06T06:13:23;15.50;99.90
22065;DHT22;11197;53.110;8.468;2023-08-06T06:15:49;15.50;99.90
22065;DHT22;11197;53.110;8.468;2023-08-06T06:18:15;15.50;99.90
22065;DHT22;11197;53.110;8.468;2023-08-06T06:20:40;15.60;99.90
22065;DHT22;11197;53.110;8.468;2023-08-06T06:23:11;15.60;99.90
22065;DHT22;11197;53.110;8.468;2023-08-06T06:25:49;15.60;99.90
22065;DHT22;11197;53.110;8.468;2023-08-06T06:28:17;15.60;99.90
22065;DHT22;11197;53.110;8.468;2023-08-06T06:30:43;15.70;99.90
22065;DHT22;11197;53.110;8.468;2023-08-06T06:33:09;15.70;99.90
22065;DHT22;11197;53.110;8.468;2023-08-06T06:35:37;15.70;99.90
22065;DHT22;11197;53.110;8.468;2023-08-06T06:38:02;15.70;99.90
22065;DHT22;11197;53.110;8.468;2023-08-06T06:40:28;15.80;99.90
22065;DHT22;11197;53.110;8.468;2023-08-06T06:42:54;15.80;99.90
22065;DHT22;11197;53.110;8.468;2023-08-06T06:45:21;15.80;99.90
22065;DHT22;11197;53.110;8.468;2023-08-06T06:47:48;15.90;99.90
22065;DHT22;11197;53.110;8.468;2023-08-06T06:50:15;15.90;99.90
22065;DHT22;11197;53.110;8.468;2023-08-06T06:52:42;15.90;99.90
22065;DHT22;11197;53.110;8.468;2023-08-06T06:55:08;16.00;99.90
22065;DHT22;11197;53.110;8.468;2023-08-06T06:57:35;16.00;99.90
22065;DHT22;11197;53.110;8.468;2023-08-06T07:00:01;16.10;99.90
22065;DHT22;11197;53.110;8.468;2023-08-06T07:02:28;16.10;99.90
22065;DHT22;11197;53.110;8.468;2023-08-06T07:04:54;16.10;99.90
22065;DHT22;11197;53.110;8.468;2023-08-06T07:07:21;16.20;99.90
22065;DHT22;11197;53.110;8.468;2023-08-06T07:09:47;16.20;99.90
22065;DHT22;11197;53.110;8.468;2023-08-06T07:12:12;16.30;99.90
22065;DHT22;11197;53.110;8.468;2023-08-06T07:14:39;16.30;99.90
22065;DHT22;11197;53.110;8.468;2023-08-06T07:17:08;16.30;99.90
22065;DHT22;11197;53.110;8.468;2023-08-06T07:19:34;16.30;99.90
22065;DHT22;11197;53.110;8.468;2023-08-06T07:21:59;16.40;99.90
22065;DHT22;11197;53.110;8.468;2023-08-06T07:24:25;16.50;99.90
22065;DHT22;11197;53.110;8.468;2023-08-06T07:26:51;16.80;99.90
22065;DHT22;11197;53.110;8.468;2023-08-06T07:29:18;17.00;99.90
22065;DHT22;11197;53.110;8.468;2023-08-06T07:31:47;17.10;99.90
22065;DHT22;11197;53.110;8.468;2023-08-06T07:34:12;17.20;99.90
22065;DHT22;11197;53.110;8.468;2023-08-06T07:36:38;17.10;99.90
22065;DHT22;11197;53.110;8.468;2023-08-06T07:39:04;17.10;99.90
22065;DHT22;11197;53.110;8.468;2023-08-06T07:41:31;17.10;99.90
22065;DHT22;11197;53.110;8.468;2023-08-06T07:43:57;17.10;99.90
22065;DHT22;11197;53.110;8.468;2023-08-06T07:46:23;17.00;99.90
22065;DHT22;11197;53.110;8.468;2023-08-06T07:48:49;17.00;99.90
22065;DHT22;11197;53.110;8.468;2023-08-06T07:51:14;17.00;99.90
22065;DHT22;11197;53.110;8.468;2023-08-06T07:53:47;17.00;99.90
22065;DHT22;11197;53.110;8.468;2023-08-06T07:56:33;17.10;99.90
22065;DHT22;11197;53.110;8.468;2023-08-06T07:58:59;17.10;99.90
22065;DHT22;11197;53.110;8.468;2023-08-06T08:01:25;17.20;99.90
22065;DHT22;11197;53.110;8.468;2023-08-06T08:03:50;17.20;99.90
22065;DHT22;11197;53.110;8.468;2023-08-06T08:06:16;17.20;99.90
22065;DHT22;11197;53.110;8.468;2023-08-06T08:08:42;17.20;99.90
22065;DHT22;11197;53.110;8.468;2023-08-06T08:11:08;17.30;99.90
22065;DHT22;11197;53.110;8.468;2023-08-06T08:13:34;17.40;99.90
22065;DHT22;11197;53.110;8.468;2023-08-06T08:16:00;17.40;99.90
22065;DHT22;11197;53.110;8.468;2023-08-06T08:18:26;17.40;99.90
22065;DHT22;11197;53.110;8.468;2023-08-06T08:20:52;17.50;99.90
22065;DHT22;11197;53.110;8.468;2023-08-06T08:23:18;17.50;99.90
22065;DHT22;11197;53.110;8.468;2023-08-06T08:25:44;17.50;99.90
22065;DHT22;11197;53.110;8.468;2023-08-06T08:28:09;17.40;99.90
22065;DHT22;11197;53.110;8.468;2023-08-06T08:30:35;17.50;99.90
22065;DHT22;11197;53.110;8.468;2023-08-06T08:33:01;17.40;99.90
22065;DHT22;11197;53.110;8.468;2023-08-06T08:35:26;17.40;99.90
22065;DHT22;11197;53.110;8.468;2023-08-06T08:37:52;17.40;99.90
22065;DHT22;11197;53.110;8.468;2023-08-06T08:40:18;17.40;99.90
22065;DHT22;11197;53.110;8.468;2023-08-06T08:42:44;17.40;99.90
22065;DHT22;11197;53.110;8.468;2023-08-06T08:45:14;17.40;99.90
22065;DHT22;11197;53.110;8.468;2023-08-06T08:47:44;17.50;99.90
22065;DHT22;11197;53.110;8.468;2023-08-06T08:50:10;17.40;99.90
22065;DHT22;11197;53.110;8.468;2023-08-06T08:52:40;17.50;99.90
22065;DHT22;11197;53.110;8.468;2023-08-06T08:55:07;17.50;99.90
22065;DHT22;11197;53.110;8.468;2023-08-06T08:57:33;17.50;99.90
22065;DHT22;11197;53.110;8.468;2023-08-06T08:59:59;17.50;99.90
22065;DHT22;11197;53.110;8.468;2023-08-06T09:02:28;17.50;99.90
22065;DHT22;11197;53.110;8.468;2023-08-06T09:04:58;17.50;99.90
22065;DHT22;11197;53.110;8.468;2023-08-06T09:07:27;17.50;99.90
22065;DHT22;11197;53.110;8.468;2023-08-06T09:09:54;17.50;99.90
22065;DHT22;11197;53.110;8.468;2023-08-06T09:12:22;17.50;99.90
22065;DHT22;11197;53.110;8.468;2023-08-06T09:14:47;17.50;99.90
22065;DHT22;11197;53.110;8.468;2023-08-06T09:17:13;17.50;99.90
22065;DHT22;11197;53.110;8.468;2023-08-06T09:19:42;17.60;99.90
22065;DHT22;11197;53.110;8.468;2023-08-06T09:22:12;17.60;99.90
22065;DHT22;11197;53.110;8.468;2023-08-06T09:24:43;17.70;99.90
22065;DHT22;11197;53.110;8.468;2023-08-06T09:27:12;17.80;99.90
22065;DHT22;11197;53.110;8.468;2023-08-06T09:29:45;17.80;99.90
22065;DHT22;11197;53.110;8.468;2023-08-06T09:32:12;17.90;99.90
22065;DHT22;11197;53.110;8.468;2023-08-06T09:34:42;18.00;99.90
22065;DHT22;11197;53.110;8.468;2023-08-06T09:37:09;18.00;99.90
22065;DHT22;11197;53.110;8.468;2023-08-06T09:39:37;18.00;99.90
22065;DHT22;11197;53.110;8.468;2023-08-06T09:42:03;18.00;99.90
22065;DHT22;11197;53.110;8.468;2023-08-06T09:44:32;18.00;99.90
22065;DHT22;11197;53.110;8.468;2023-08-06T09:46:59;18.00;99.90
22065;DHT22;11197;53.110;8.468;2023-08-06T09:49:27;18.00;99.90
22065;DHT22;11197;53.110;8.468;2023-08-06T09:51:54;18.10;99.90
22065;DHT22;11197;53.110;8.468;2023-08-06T09:54:25;18.20;99.90
22065;DHT22;11197;53.110;8.468;2023-08-06T09:56:55;18.30;99.90
22065;DHT22;11197;53.110;8.468;2023-08-06T09:59:24;18.20;99.90
22065;DHT22;11197;53.110;8.468;2023-08-06T10:01:51;18.30;99.90
22065;DHT22;11197;53.110;8.468;2023-08-06T10:04:16;18.30;99.90
22065;DHT22;11197;53.110;8.468;2023-08-06T10:06:46;18.50;99.90
22065;DHT22;11197;53.110;8.468;2023-08-06T10:09:13;18.60;99.90
22065;DHT22;11197;53.110;8.468;2023-08-06T10:11:39;18.70;99.90
22065;DHT22;11197;53.110;8.468;2023-08-06T10:14:28;18.70;99.90
22065;DHT22;11197;53.110;8.468;2023-08-06T10:16:57;18.70;99.90
22065;DHT22;11197;53.110;8.468;2023-08-06T10:19:25;18.70;99.90
22065;DHT22;11197;53.110;8.468;2023-08-06T10:22:15;18.80;99.90
22065;DHT22;11197;53.110;8.468;2023-08-06T10:27:27;18.80;99.90
22065;DHT22;11197;53.110;8.468;2023-08-06T10:29:53;18.80;99.90
22065;DHT22;11197;53.110;8.468;2023-08-06T10:32:19;18.80;99.90
22065;DHT22;11197;53.110;8.468;2023-08-06T10:34:59;18.80;99.90
22065;DHT22;11197;53.110;8.468;2023-08-06T10:37:36;18.70;99.90
22065;DHT22;11197;53.110;8.468;2023-08-06T10:40:03;18.70;99.90
22065;DHT22;11197;53.110;8.468;2023-08-06T10:42:29;18.80;99.90
22065;DHT22;11197;53.110;8.468;2023-08-06T10:45:15;18.80;99.90
22065;DHT22;11197;53.110;8.468;2023-08-06T10:47:41;18.80;99.90
22065;DHT22;11197;53.110;8.468;2023-08-06T10:50:10;18.80;99.90
22065;DHT22;11197;53.110;8.468;2023-08-06T10:52:36;18.90;99.90
22065;DHT22;11197;53.110;8.468;2023-08-06T10:55:02;18.90;99.90
22065;DHT22;11197;53.110;8.468;2023-08-06T10:57:27;19.00;99.90
22065;DHT22;11197;53.110;8.468;2023-08-06T10:59:53;19.00;99.90
22065;DHT22;11197;53.110;8.468;2023-08-06T11:02:19;19.10;99.90
22065;DHT22;11197;53.110;8.468;2023-08-06T11:04:45;19.10;99.90
22065;DHT22;11197;53.110;8.468;2023-08-06T11:07:10;19.10;99.90
22065;DHT22;11197;53.110;8.468;2023-08-06T11:09:37;19.10;99.90
22065;DHT22;11197;53.110;8.468;2023-08-06T11:12:09;19.20;99.90
22065;DHT22;11197;53.110;8.468;2023-08-06T11:14:35;19.20;99.90
22065;DHT22;11197;53.110;8.468;2023-08-06T11:17:21;19.20;99.90
22065;DHT22;11197;53.110;8.468;2023-08-06T11:19:47;19.20;99.90
22065;DHT22;11197;53.110;8.468;2023-08-06T11:22:14;19.30;99.90
22065;DHT22;11197;53.110;8.468;2023-08-06T11:24:40;19.40;99.90
22065;DHT22;11197;53.110;8.468;2023-08-06T11:27:13;19.40;99.90
22065;DHT22;11197;53.110;8.468;2023-08-06T11:29:40;19.40;99.90
22065;DHT22;11197;53.110;8.468;2023-08-06T11:32:06;19.50;99.90
22065;DHT22;11197;53.110;8.468;2023-08-06T11:34:32;19.50;99.90
22065;DHT22;11197;53.110;8.468;2023-08-06T11:36:57;19.60;99.90
22065;DHT22;11197;53.110;8.468;2023-08-06T11:39:23;19.60;99.90
22065;DHT22;11197;53.110;8.468;2023-08-06T11:41:50;19.70;99.90
22065;DHT22;11197;53.110;8.468;2023-08-06T11:44:17;19.70;99.90
22065;DHT22;11197;53.110;8.468;2023-08-06T11:46:54;19.70;99.90
22065;DHT22;11197;53.110;8.468;2023-08-06T11:49:45;19.80;99.90
22065;DHT22;11197;53.110;8.468;2023-08-06T11:52:12;19.80;99.90
22065;DHT22;11197;53.110;8.468;2023-08-06T11:54:38;19.80;99.90
22065;DHT22;11197;53.110;8.468;2023-08-06T11:57:08;19.90;99.90
22065;DHT22;11197;53.110;8.468;2023-08-06T11:59:34;19.90;99.90
22065;DHT22;11197;53.110;8.468;2023-08-06T12:02:04;19.80;99.90
22065;DHT22;11197;53.110;8.468;2023-08-06T12:04:57;19.80;99.90
22065;DHT22;11197;53.110;8.468;2023-08-06T12:07:27;19.80;99.90
22065;DHT22;11197;53.110;8.468;2023-08-06T12:09:52;19.90;99.90
22065;DHT22;11197;53.110;8.468;2023-08-06T12:12:18;19.90;99.90
22065;DHT22;11197;53.110;8.468;2023-08-06T12:14:44;20.00;99.90
22065;DHT22;11197;53.110;8.468;2023-08-06T12:17:10;20.00;99.90
22065;DHT22;11197;53.110;8.468;2023-08-06T12:19:36;20.00;99.90
22065;DHT22;11197;53.110;8.468;2023-08-06T12:22:02;20.00;99.90
22065;DHT22;11197;53.110;8.468;2023-08-06T12:24:28;20.00;99.90
22065;DHT22;11197;53.110;8.468;2023-08-06T12:26:57;20.10;99.90
22065;DHT22;11197;53.110;8.468;2023-08-06T12:29:24;20.10;99.90
22065;DHT22;11197;53.110;8.468;2023-08-06T12:31:50;20.10;99.90
22065;DHT22;11197;53.110;8.468;2023-08-06T12:34:16;20.10;99.90
22065;DHT22;11197;53.110;8.468;2023-08-06T12:36:42;20.20;99.90
22065;DHT22;11197;53.110;8.468;2023-08-06T12:39:08;20.20;99.90
22065;DHT22;11197;53.110;8.468;2023-08-06T12:41:33;20.30;99.90
22065;DHT22;11197;53.110;8.468;2023-08-06T12:43:59;20.30;99.90
22065;DHT22;11197;53.110;8.468;2023-08-06T12:46:25;20.30;99.90
22065;DHT22;11197;53.110;8.468;2023-08-06T12:48:50;20.30;99.90
22065;DHT22;11197;53.110;8.468;2023-08-06T12:51:16;20.30;99.90
22065;DHT22;11197;53.110;8.468;2023-08-06T12:53:42;20.30;99.90
22065;DHT22;11197;53.110;8.468;2023-08-06T12:56:08;20.40;99.90
22065;DHT22;11197;53.110;8.468;2023-08-06T12:58:34;20.40;99.90
22065;DHT22;11197;53.110;8.468;2023-08-06T13:00:59;20.50;99.90
22065;DHT22;11197;53.110;8.468;2023-08-06T13:03:25;20.50;99.90
22065;DHT22;11197;53.110;8.468;2023-08-06T13:05:51;20.60;99.90
22065;DHT22;11197;53.110;8.468;2023-08-06T13:08:17;20.60;99.90
22065;DHT22;11197;53.110;8.468;2023-08-06T13:10:43;20.60;99.90
22065;DHT22;11197;53.110;8.468;2023-08-06T13:13:11;20.70;99.90
22065;DHT22;11197;53.110;8.468;2023-08-06T13:16:03;20.70;99.90
22065;DHT22;11197;53.110;8.468;2023-08-06T13:18:29;20.70;99.90
22065;DHT22;11197;53.110;8.468;2023-08-06T13:20:55;20.70;99.90
22065;DHT22;11197;53.110;8.468;2023-08-06T13:23:21;20.80;99.90
22065;DHT22;11197;53.110;8.468;2023-08-06T13:25:47;20.80;99.90
22065;DHT22;11197;53.110;8.468;2023-08-06T13:28:12;20.90;99.90
22065;DHT22;11197;53.110;8.468;2023-08-06T13:30:40;20.90;99.90
22065;DHT22;11197;53.110;8.468;2023-08-06T13:33:11;21.00;99.90
22065;DHT22;11197;53.110;8.468;2023-08-06T13:35:37;21.00;99.90
22065;DHT22;11197;53.110;8.468;2023-08-06T13:38:03;21.00;99.90
22065;DHT22;11197;53.110;8.468;2023-08-06T13:40:32;21.00;99.90
22065;DHT22;11197;53.110;8.468;2023-08-06T13:42:58;21.10;99.90
22065;DHT22;11197;53.110;8.468;2023-08-06T13:45:23;21.10;99.90
22065;DHT22;11197;53.110;8.468;2023-08-06T13:47:49;21.20;99.90
22065;DHT22;11197;53.110;8.468;2023-08-06T13:50:15;21.20;99.90
22065;DHT22;11197;53.110;8.468;2023-08-06T13:52:41;21.20;99.90
22065;DHT22;11197;53.110;8.468;2023-08-06T13:55:07;21.20;99.90
22065;DHT22;11197;53.110;8.468;2023-08-06T13:57:34;21.20;99.90
22065;DHT22;11197;53.110;8.468;2023-08-06T14:00:00;21.10;99.90
22065;DHT22;11197;53.110;8.468;2023-08-06T14:02:26;21.10;99.90
22065;DHT22;11197;53.110;8.468;2023-08-06T14:04:55;21.00;99.90
22065;DHT22;11197;53.110;8.468;2023-08-06T14:07:21;21.00;99.90
22065;DHT22;11197;53.110;8.468;2023-08-06T14:09:46;21.00;99.90
22065;DHT22;11197;53.110;8.468;2023-08-06T14:12:13;21.10;99.90
22065;DHT22;11197;53.110;8.468;2023-08-06T14:14:39;21.10;99.90
22065;DHT22;11197;53.110;8.468;2023-08-06T14:17:05;21.10;99.90
22065;DHT22;11197;53.110;8.468;2023-08-06T14:19:31;21.10;99.90
22065;DHT22;11197;53.110;8.468;2023-08-06T14:21:57;21.10;99.90
22065;DHT22;11197;53.110;8.468;2023-08-06T14:24:23;21.00;99.90
22065;DHT22;11197;53.110;8.468;2023-08-06T14:26:49;21.00;99.90
22065;DHT22;11197;53.110;8.468;2023-08-06T14:29:14;21.00;99.90
22065;DHT22;11197;53.110;8.468;2023-08-06T14:31:41;21.00;99.90
22065;DHT22;11197;53.110;8.468;2023-08-06T14:34:08;21.00;99.90
22065;DHT22;11197;53.110;8.468;2023-08-06T14:36:33;21.00;99.90
22065;DHT22;11197;53.110;8.468;2023-08-06T14:39:00;21.00;99.90
22065;DHT22;11197;53.110;8.468;2023-08-06T14:41:26;21.00;99.90
22065;DHT22;11197;53.110;8.468;2023-08-06T14:43:51;21.10;99.90
22065;DHT22;11197;53.110;8.468;2023-08-06T14:46:18;21.10;99.90
22065;DHT22;11197;53.110;8.468;2023-08-06T14:48:44;21.10;99.90
22065;DHT22;11197;53.110;8.468;2023-08-06T14:51:10;21.10;99.90
22065;DHT22;11197;53.110;8.468;2023-08-06T14:53:35;21.10;99.90
22065;DHT22;11197;53.110;8.468;2023-08-06T14:56:01;21.10;99.90
22065;DHT22;11197;53.110;8.468;2023-08-06T14:58:27;21.20;99.90
22065;DHT22;11197;53.110;8.468;2023-08-06T15:00:52;21.20;99.90
22065;DHT22;11197;53.110;8.468;2023-08-06T15:03:18;21.20;99.90
22065;DHT22;11197;53.110;8.468;2023-08-06T15:05:47;21.30;99.90
22065;DHT22;11197;53.110;8.468;2023-08-06T15:08:13;21.30;99.90
22065;DHT22;11197;53.110;8.468;2023-08-06T15:10:38;21.40;99.90
22065;DHT22;11197;53.110;8.468;2023-08-06T15:13:04;21.40;99.90
22065;DHT22;11197;53.110;8.468;2023-08-06T15:15:30;21.40;99.90
22065;DHT22;11197;53.110;8.468;2023-08-06T15:17:56;21.40;99.90
22065;DHT22;11197;53.110;8.468;2023-08-06T15:20:23;21.40;99.90
22065;DHT22;11197;53.110;8.468;2023-08-06T15:22:49;21.30;99.90
22065;DHT22;11197;53.110;8.468;2023-08-06T15:25:15;21.30;99.90
22065;DHT22;11197;53.110;8.468;2023-08-06T15:27:40;21.30;99.90
22065;DHT22;11197;53.110;8.468;2023-08-06T15:30:07;21.20;99.90
22065;DHT22;11197;53.110;8.468;2023-08-06T15:32:33;21.20;99.90
22065;DHT22;11197;53.110;8.468;2023-08-06T15:34:59;21.20;99.90
22065;DHT22;11197;53.110;8.468;2023-08-06T15:37:25;21.30;99.90